Time;durP1;ratioP1;P1;durP2;ratioP2;P2;SDS_P1;SDS_P2;PMS_P1;PMS_P2;Temp;Humidity;BMP_temperature;BMP_pressure;BME280_temperature;BME280_humidity;BME280_pressure;Samples;Min_cycle;Max_cycle;Signal;HPM_P1;HPM_P2
2022/10/08 00:01:19;;;;;;;;;;;5.80;99.90;;;;;;5108636;27;1464;-56
2022/10/08 00:03:58;;;;;;;;;;;5.90;99.90;;;;;;5108637;27;1429;-56
2022/10/08 00:06:36;;;;;;;;;;;5.90;99.90;;;;;;5106719;27;1333;-56
2022/10/08 00:09:14;;;;;;;;;;;5.80;99.90;;;;;;5104996;27;1567;-56
2022/10/08 00:11:53;;;;;;;;;;;5.80;99.90;;;;;;5103508;27;1277;-56
2022/10/08 00:14:31;;;;;;;;;;;5.80;99.90;;;;;;5108597;27;1262;-56
2022/10/08 00:17:09;;;;;;;;;;;5.70;99.90;;;;;;5107609;27;1361;-56
2022/10/08 00:19:47;;;;;;;;;;;5.70;99.90;;;;;;5108509;27;1303;-56
2022/10/08 00:22:25;;;;;;;;;;;5.70;99.90;;;;;;5102340;27;1658;-56
2022/10/08 00:25:04;;;;;;;;;;;5.70;99.90;;;;;;5107455;27;1394;-56
2022/10/08 00:27:42;;;;;;;;;;;5.60;99.90;;;;;;5103906;27;1333;-56
2022/10/08 00:30:20;;;;;;;;;;;5.60;99.90;;;;;;5103243;27;1579;-56
2022/10/08 00:32:59;;;;;;;;;;;5.70;99.90;;;;;;5106640;27;2058;-56
2022/10/08 00:35:39;;;;;;;;;;;5.80;99.90;;;;;;5086956;27;1390;-56
2022/10/08 00:38:18;;;;;;;;;;;5.80;99.90;;;;;;5108787;27;1248;-56
2022/10/08 00:40:58;;;;;;;;;;;5.80;99.90;;;;;;5109168;27;1288;-56
2022/10/08 00:43:39;;;;;;;;;;;5.80;99.90;;;;;;5088596;27;1473;-56
2022/10/08 00:46:21;;;;;;;;;;;5.90;99.90;;;;;;5088024;27;1387;-56
2022/10/08 00:49:02;;;;;;;;;;;6.10;99.90;;;;;;5105088;27;1584;-56
2022/10/08 00:51:42;;;;;;;;;;;6.20;99.90;;;;;;5072606;27;2084;-56
2022/10/08 00:54:22;;;;;;;;;;;6.20;99.90;;;;;;5108438;27;1322;-56
2022/10/08 00:57:02;;;;;;;;;;;6.30;99.90;;;;;;5097618;27;1386;-56
2022/10/08 00:59:40;;;;;;;;;;;6.20;99.90;;;;;;5107640;27;1501;-56
2022/10/08 01:02:18;;;;;;;;;;;6.20;99.90;;;;;;5108992;27;1217;-56
2022/10/08 01:04:58;;;;;;;;;;;6.40;99.90;;;;;;5109314;27;1300;-56
2022/10/08 01:07:42;;;;;;;;;;;6.50;99.90;;;;;;5107136;27;1783;-56
2022/10/08 01:10:26;;;;;;;;;;;6.70;99.90;;;;;;5084556;27;1860;-56
2022/10/08 01:13:11;;;;;;;;;;;7.00;99.90;;;;;;5065571;27;1742;-56
2022/10/08 01:15:53;;;;;;;;;;;7.40;99.90;;;;;;5084692;27;1361;-56
2022/10/08 01:18:37;;;;;;;;;;;7.70;99.90;;;;;;5109430;27;1378;-56
2022/10/08 01:21:19;;;;;;;;;;;7.90;99.90;;;;;;5109252;27;1408;-56
2022/10/08 01:24:11;;;;;;;;;;;8.20;99.90;;;;;;5109134;27;1188;-55
2022/10/08 01:26:54;;;;;;;;;;;8.50;99.90;;;;;;5097991;27;1461;-56
2022/10/08 01:29:37;;;;;;;;;;;8.80;99.90;;;;;;5082143;27;1561;-56
2022/10/08 01:32:17;;;;;;;;;;;9.10;99.90;;;;;;5107541;27;1764;-56
2022/10/08 01:34:59;;;;;;;;;;;9.30;99.90;;;;;;5108031;27;1667;-56
2022/10/08 01:37:41;;;;;;;;;;;9.60;99.90;;;;;;5091059;27;1378;-56
2022/10/08 01:40:21;;;;;;;;;;;9.90;99.90;;;;;;5109124;27;1178;-56
2022/10/08 01:43:02;;;;;;;;;;;10.10;99.90;;;;;;5110475;27;1233;-56
2022/10/08 01:45:44;;;;;;;;;;;10.40;99.90;;;;;;5095954;27;1784;-56
2022/10/08 01:48:26;;;;;;;;;;;10.60;99.90;;;;;;5108336;27;1390;-56
2022/10/08 01:51:06;;;;;;;;;;;10.70;99.90;;;;;;5109054;27;1397;-56
2022/10/08 01:53:46;;;;;;;;;;;10.80;99.90;;;;;;5110183;27;1361;-56
2022/10/08 01:56:26;;;;;;;;;;;10.80;99.90;;;;;;5089082;27;1394;-56
2022/10/08 01:59:06;;;;;;;;;;;10.80;99.90;;;;;;5105794;27;1561;-56
2022/10/08 02:01:51;;;;;;;;;;;10.90;99.90;;;;;;5073661;27;1269;-56
2022/10/08 02:04:32;;;;;;;;;;;10.90;99.90;;;;;;5087414;27;1845;-56
2022/10/08 02:07:15;;;;;;;;;;;11.00;99.90;;;;;;5093875;27;1401;-56
2022/10/08 02:10:00;;;;;;;;;;;11.00;99.90;;;;;;5109362;27;1224;-56
2022/10/08 02:12:40;;;;;;;;;;;11.00;99.90;;;;;;5109490;27;1289;-56
2022/10/08 02:15:21;;;;;;;;;;;11.00;99.90;;;;;;5109803;27;1304;-56
2022/10/08 02:18:06;;;;;;;;;;;11.10;99.90;;;;;;5088612;27;1434;-56
2022/10/08 02:20:49;;;;;;;;;;;11.10;99.90;;;;;;5108899;27;1411;-56
2022/10/08 02:23:32;;;;;;;;;;;11.10;99.90;;;;;;5109748;27;1304;-56
2022/10/08 02:26:14;;;;;;;;;;;11.10;99.90;;;;;;5083715;27;1449;-56
2022/10/08 02:28:55;;;;;;;;;;;11.10;99.90;;;;;;5108912;27;1385;-54
2022/10/08 02:31:35;;;;;;;;;;;11.10;99.90;;;;;;5109264;27;1724;-56
2022/10/08 02:34:16;;;;;;;;;;;11.10;99.90;;;;;;5107326;27;1266;-56
2022/10/08 02:36:56;;;;;;;;;;;11.10;99.90;;;;;;5103738;27;1662;-56
2022/10/08 02:39:38;;;;;;;;;;;11.10;99.90;;;;;;5108215;27;1471;-56
2022/10/08 02:42:18;;;;;;;;;;;11.10;99.90;;;;;;5108644;27;1639;-56
2022/10/08 02:44:59;;;;;;;;;;;11.10;99.90;;;;;;5109682;27;1232;-56
2022/10/08 02:47:39;;;;;;;;;;;11.10;99.90;;;;;;5089080;27;1283;-56
2022/10/08 02:50:20;;;;;;;;;;;11.10;99.90;;;;;;5106933;27;1773;-56
2022/10/08 02:53:00;;;;;;;;;;;11.10;99.90;;;;;;5109359;27;1398;-56
2022/10/08 02:55:43;;;;;;;;;;;11.10;99.90;;;;;;5087656;27;1330;-55
2022/10/08 02:58:22;;;;;;;;;;;11.10;99.90;;;;;;5107372;27;1634;-55
2022/10/08 03:01:03;;;;;;;;;;;11.20;99.90;;;;;;5108479;27;1774;-56
2022/10/08 03:03:44;;;;;;;;;;;11.20;99.90;;;;;;5108619;27;1220;-56
2022/10/08 03:06:23;;;;;;;;;;;11.20;99.90;;;;;;5110152;27;1312;-56
2022/10/08 03:09:02;;;;;;;;;;;11.20;99.90;;;;;;5108906;27;1296;-56
2022/10/08 03:11:41;;;;;;;;;;;11.20;99.90;;;;;;5109018;27;1297;-56
2022/10/08 03:14:22;;;;;;;;;;;11.20;99.90;;;;;;5109574;27;1297;-55
2022/10/08 03:17:01;;;;;;;;;;;11.20;99.90;;;;;;5108826;27;1305;-56
2022/10/08 03:19:39;;;;;;;;;;;11.20;99.90;;;;;;5104785;27;1626;-56
2022/10/08 03:22:17;;;;;;;;;;;11.10;99.90;;;;;;5066230;27;1326;-56
2022/10/08 03:24:55;;;;;;;;;;;11.10;99.90;;;;;;5108845;27;1308;-56
2022/10/08 03:27:34;;;;;;;;;;;11.10;99.90;;;;;;5091360;27;1306;-54
2022/10/08 03:30:14;;;;;;;;;;;11.10;99.90;;;;;;5088663;27;1250;-56
2022/10/08 03:32:53;;;;;;;;;;;11.20;99.90;;;;;;5109888;27;1406;-57
2022/10/08 03:35:32;;;;;;;;;;;11.20;99.90;;;;;;5109171;27;1478;-56
2022/10/08 03:38:10;;;;;;;;;;;11.10;99.90;;;;;;5137218;22;1818;-53
2022/10/08 03:40:55;;;;;;;;;;;11.10;99.90;;;;;;5091485;27;1366;-52
2022/10/08 03:43:34;;;;;;;;;;;11.10;99.90;;;;;;5107840;27;1606;-53
2022/10/08 03:46:13;;;;;;;;;;;11.10;99.90;;;;;;5106854;27;1668;-51
2022/10/08 03:48:52;;;;;;;;;;;11.10;99.90;;;;;;5108430;27;1485;-52
2022/10/08 03:51:31;;;;;;;;;;;11.10;99.90;;;;;;5108089;27;1457;-51
2022/10/08 03:54:09;;;;;;;;;;;11.10;99.90;;;;;;5088810;27;1508;-51
2022/10/08 03:56:47;;;;;;;;;;;11.10;99.90;;;;;;5068122;27;1604;-50
2022/10/08 03:59:25;;;;;;;;;;;11.10;99.90;;;;;;5104763;27;1591;-52
2022/10/08 04:02:03;;;;;;;;;;;11.10;99.90;;;;;;5108249;27;1257;-51
2022/10/08 04:04:42;;;;;;;;;;;11.10;99.90;;;;;;5088037;27;1305;-50
2022/10/08 04:07:20;;;;;;;;;;;11.10;99.90;;;;;;5077874;27;1386;-51
2022/10/08 04:09:58;;;;;;;;;;;11.10;99.90;;;;;;5108780;27;1487;-53
2022/10/08 04:12:36;;;;;;;;;;;11.10;99.90;;;;;;5109097;27;1386;-52
2022/10/08 04:15:15;;;;;;;;;;;11.20;99.90;;;;;;5104311;27;1862;-51
2022/10/08 04:17:53;;;;;;;;;;;11.10;99.90;;;;;;5095460;27;1724;-51
2022/10/08 04:20:31;;;;;;;;;;;11.10;99.90;;;;;;5111958;27;1769;-53
2022/10/08 04:23:11;;;;;;;;;;;11.10;99.90;;;;;;5107643;27;1389;-52
2022/10/08 04:25:51;;;;;;;;;;;11.10;99.90;;;;;;5107920;27;1208;-51
2022/10/08 04:28:29;;;;;;;;;;;11.10;99.90;;;;;;5047613;27;1669;-52
2022/10/08 04:31:09;;;;;;;;;;;11.10;99.90;;;;;;5089534;27;1533;-52
2022/10/08 04:33:49;;;;;;;;;;;11.20;99.90;;;;;;5097958;27;1684;-55
2022/10/08 04:36:28;;;;;;;;;;;11.10;99.90;;;;;;5089092;27;1549;-51
2022/10/08 04:39:07;;;;;;;;;;;11.10;99.90;;;;;;5086098;27;1457;-55
2022/10/08 04:41:45;;;;;;;;;;;11.10;99.90;;;;;;5109469;27;1359;-51
2022/10/08 04:44:23;;;;;;;;;;;11.20;99.90;;;;;;5109056;27;1530;-50
2022/10/08 04:47:01;;;;;;;;;;;11.10;99.90;;;;;;5107817;27;1214;-52
2022/10/08 04:49:39;;;;;;;;;;;11.10;99.90;;;;;;5103446;27;1673;-50
2022/10/08 04:52:19;;;;;;;;;;;11.20;99.90;;;;;;5106516;27;1659;-53
2022/10/08 04:54:58;;;;;;;;;;;11.10;99.90;;;;;;5095261;27;1390;-59
2022/10/08 04:57:36;;;;;;;;;;;11.10;99.90;;;;;;5107555;27;1495;-51
2022/10/08 05:00:16;;;;;;;;;;;11.10;99.90;;;;;;5108109;27;1392;-52
2022/10/08 05:02:54;;;;;;;;;;;11.10;99.90;;;;;;5068338;27;1203;-52
2022/10/08 05:05:32;;;;;;;;;;;11.10;99.90;;;;;;5088012;27;1172;-53
2022/10/08 05:08:12;;;;;;;;;;;11.10;99.90;;;;;;5086880;27;1422;-52
2022/10/08 05:10:50;;;;;;;;;;;11.10;99.90;;;;;;5108200;27;1279;-53
2022/10/08 05:13:28;;;;;;;;;;;11.10;99.90;;;;;;5109313;27;1517;-52
2022/10/08 05:16:08;;;;;;;;;;;11.10;99.90;;;;;;5108804;27;1304;-53
2022/10/08 05:18:46;;;;;;;;;;;11.10;99.90;;;;;;5108514;27;1232;-53
2022/10/08 05:21:26;;;;;;;;;;;11.00;99.90;;;;;;5113100;27;1167;-50
2022/10/08 05:24:06;;;;;;;;;;;11.10;99.90;;;;;;5109459;27;1241;-51
2022/10/08 05:26:44;;;;;;;;;;;11.10;99.90;;;;;;5104944;27;1374;-53
2022/10/08 05:29:23;;;;;;;;;;;11.00;99.90;;;;;;5105106;27;1601;-52
2022/10/08 05:32:01;;;;;;;;;;;11.00;99.90;;;;;;5108237;27;1588;-50
2022/10/08 05:34:39;;;;;;;;;;;11.00;99.90;;;;;;5088040;27;1293;-51
2022/10/08 05:37:17;;;;;;;;;;;11.00;99.90;;;;;;5100320;27;1561;-51
2022/10/08 05:39:55;;;;;;;;;;;11.00;99.90;;;;;;5103944;27;1641;-50
2022/10/08 05:42:34;;;;;;;;;;;11.10;99.90;;;;;;5106307;27;1668;-55
2022/10/08 05:45:12;;;;;;;;;;;11.10;99.90;;;;;;5108405;27;1366;-53
2022/10/08 05:47:50;;;;;;;;;;;11.10;99.90;;;;;;5104733;27;1735;-54
2022/10/08 05:50:28;;;;;;;;;;;11.10;99.90;;;;;;5063577;27;1682;-54
2022/10/08 05:53:07;;;;;;;;;;;11.10;99.90;;;;;;5093610;27;2245;-54
2022/10/08 05:55:45;;;;;;;;;;;11.20;99.90;;;;;;5091601;27;1683;-53
2022/10/08 05:58:23;;;;;;;;;;;11.20;99.90;;;;;;5107924;27;1391;-51
2022/10/08 06:01:02;;;;;;;;;;;11.30;99.90;;;;;;5107474;27;1399;-51
2022/10/08 06:03:41;;;;;;;;;;;11.30;99.90;;;;;;5105227;27;1564;-54
2022/10/08 06:06:20;;;;;;;;;;;11.30;99.90;;;;;;5096766;27;1370;-53
2022/10/08 06:09:00;;;;;;;;;;;11.30;99.90;;;;;;5106382;27;1315;-54
2022/10/08 06:11:39;;;;;;;;;;;11.30;99.90;;;;;;5109486;27;1254;-56
2022/10/08 06:14:19;;;;;;;;;;;11.30;99.90;;;;;;5063561;27;1582;-51
2022/10/08 06:16:59;;;;;;;;;;;11.30;99.90;;;;;;5105927;27;1609;-52
2022/10/08 06:19:37;;;;;;;;;;;11.30;99.90;;;;;;5107540;27;1602;-54
2022/10/08 06:22:15;;;;;;;;;;;11.30;99.90;;;;;;5106352;27;1657;-52
2022/10/08 06:24:53;;;;;;;;;;;11.40;99.90;;;;;;5108226;27;1202;-55
2022/10/08 06:27:32;;;;;;;;;;;11.40;99.90;;;;;;5079823;27;1846;-54
2022/10/08 06:30:11;;;;;;;;;;;11.40;99.90;;;;;;5089436;27;1401;-52
2022/10/08 06:32:50;;;;;;;;;;;11.40;99.90;;;;;;5089756;27;1361;-54
2022/10/08 06:35:29;;;;;;;;;;;11.50;99.90;;;;;;5109853;27;1192;-54
2022/10/08 06:38:08;;;;;;;;;;;11.50;99.90;;;;;;5079025;27;1942;-53
2022/10/08 06:40:46;;;;;;;;;;;11.60;99.90;;;;;;5096442;27;1672;-53
2022/10/08 06:43:24;;;;;;;;;;;11.70;99.90;;;;;;5104197;27;1926;-54
2022/10/08 06:46:05;;;;;;;;;;;11.70;99.90;;;;;;5108054;27;1551;-52
2022/10/08 06:48:44;;;;;;;;;;;11.70;99.90;;;;;;5104863;27;1610;-54
2022/10/08 06:51:24;;;;;;;;;;;11.70;99.90;;;;;;5103522;27;1682;-52
2022/10/08 06:54:02;;;;;;;;;;;11.70;99.90;;;;;;5089156;27;1688;-53
2022/10/08 06:56:40;;;;;;;;;;;11.70;99.90;;;;;;5107742;27;1777;-55
2022/10/08 06:59:18;;;;;;;;;;;11.70;99.90;;;;;;5088771;27;1743;-53
2022/10/08 07:01:56;;;;;;;;;;;11.80;99.90;;;;;;5065411;27;1671;-54
2022/10/08 07:04:35;;;;;;;;;;;11.80;99.90;;;;;;5109286;27;1353;-53
2022/10/08 07:07:13;;;;;;;;;;;11.80;99.90;;;;;;5077528;27;1388;-52
2022/10/08 07:09:51;;;;;;;;;;;11.70;99.90;;;;;;5109444;27;1336;-51
2022/10/08 07:12:30;;;;;;;;;;;11.70;99.90;;;;;;5109685;27;1293;-53
2022/10/08 07:15:10;;;;;;;;;;;11.70;99.90;;;;;;5087623;27;1397;-52
2022/10/08 07:17:49;;;;;;;;;;;11.70;99.90;;;;;;5102608;27;2020;-52
2022/10/08 07:20:27;;;;;;;;;;;11.70;99.90;;;;;;5086523;27;1226;-55
2022/10/08 07:23:05;;;;;;;;;;;11.80;99.90;;;;;;5097210;27;1889;-53
2022/10/08 07:25:44;;;;;;;;;;;11.90;99.90;;;;;;5066920;27;1294;-54
2022/10/08 07:28:22;;;;;;;;;;;11.80;99.90;;;;;;5088912;27;1398;-53
2022/10/08 07:31:04;;;;;;;;;;;11.80;99.90;;;;;;5109946;27;1734;-55
2022/10/08 07:33:43;;;;;;;;;;;11.80;99.90;;;;;;5103097;27;1644;-53
2022/10/08 07:36:23;;;;;;;;;;;11.90;99.90;;;;;;5108701;27;1424;-55
2022/10/08 07:39:03;;;;;;;;;;;11.90;99.90;;;;;;5083705;27;1691;-54
2022/10/08 07:41:41;;;;;;;;;;;11.90;99.90;;;;;;5108873;27;1339;-51
2022/10/08 07:44:19;;;;;;;;;;;11.90;99.90;;;;;;5108900;27;1304;-51
2022/10/08 07:46:58;;;;;;;;;;;12.00;99.90;;;;;;5103993;27;1659;-54
2022/10/08 07:49:36;;;;;;;;;;;12.10;99.90;;;;;;5108951;27;1396;-53
2022/10/08 07:52:14;;;;;;;;;;;12.20;99.90;;;;;;5109419;27;1250;-52
2022/10/08 07:54:52;;;;;;;;;;;12.40;99.90;;;;;;5109576;27;1211;-51
2022/10/08 07:57:30;;;;;;;;;;;12.50;99.90;;;;;;5109287;27;1312;-52
2022/10/08 08:00:09;;;;;;;;;;;12.60;99.90;;;;;;5088310;27;1206;-52
2022/10/08 08:02:50;;;;;;;;;;;12.70;99.90;;;;;;5088612;27;1303;-54
2022/10/08 08:05:28;;;;;;;;;;;12.90;99.90;;;;;;5109336;27;1300;-52
2022/10/08 08:08:07;;;;;;;;;;;13.10;99.90;;;;;;5100350;27;1578;-53
2022/10/08 08:10:45;;;;;;;;;;;13.10;99.90;;;;;;5086924;27;1304;-52
2022/10/08 08:13:23;;;;;;;;;;;13.00;99.90;;;;;;5067976;27;1360;-51
2022/10/08 08:16:02;;;;;;;;;;;12.90;99.90;;;;;;5086161;27;1632;-52
2022/10/08 08:18:42;;;;;;;;;;;12.80;99.90;;;;;;5073920;27;1312;-56
2022/10/08 08:21:22;;;;;;;;;;;12.90;99.90;;;;;;5107984;27;1595;-53
2022/10/08 08:24:04;;;;;;;;;;;13.20;99.90;;;;;;5109385;27;1295;-54
2022/10/08 08:26:44;;;;;;;;;;;13.50;99.90;;;;;;5088334;27;1278;-53
2022/10/08 08:29:24;;;;;;;;;;;13.50;99.90;;;;;;5101721;27;1588;-54
2022/10/08 08:32:02;;;;;;;;;;;13.40;99.90;;;;;;5105498;27;1792;-51
2022/10/08 08:34:40;;;;;;;;;;;13.40;99.90;;;;;;5107282;27;1255;-50
2022/10/08 08:37:18;;;;;;;;;;;13.80;99.90;;;;;;5107785;27;1384;-51
2022/10/08 08:39:56;;;;;;;;;;;14.00;99.90;;;;;;5108839;27;1398;-50
2022/10/08 08:42:46;;;;;;;;;;;14.30;99.90;;;;;;5088881;27;1391;-52
2022/10/08 08:45:27;;;;;;;;;;;14.50;99.90;;;;;;5088857;27;1221;-53
2022/10/08 08:48:09;;;;;;;;;;;14.70;99.90;;;;;;5108823;27;1525;-53
2022/10/08 08:50:48;;;;;;;;;;;15.00;99.90;;;;;;5109295;27;1489;-53
2022/10/08 08:53:27;;;;;;;;;;;15.10;99.90;;;;;;5109991;27;1328;-51
2022/10/08 08:56:07;;;;;;;;;;;15.10;99.90;;;;;;5088568;27;1285;-51
2022/10/08 08:58:48;;;;;;;;;;;15.10;99.90;;;;;;5068265;27;1394;-52
2022/10/08 09:01:33;;;;;;;;;;;15.10;99.90;;;;;;5069430;27;1311;-54
2022/10/08 09:04:21;;;;;;;;;;;15.20;99.90;;;;;;5110172;27;1408;-50
2022/10/08 09:07:01;;;;;;;;;;;15.40;99.90;;;;;;5081681;27;1657;-51
2022/10/08 09:09:42;;;;;;;;;;;15.50;99.90;;;;;;5064795;27;1700;-54
2022/10/08 09:12:23;;;;;;;;;;;15.70;99.90;;;;;;5088274;27;1636;-55
2022/10/08 09:15:02;;;;;;;;;;;15.90;99.90;;;;;;5109273;27;1926;-51
2022/10/08 09:17:41;;;;;;;;;;;16.20;99.90;;;;;;5101324;27;2246;-51
2022/10/08 09:20:21;;;;;;;;;;;16.60;99.90;;;;;;5086605;27;1638;-53
2022/10/08 09:23:00;;;;;;;;;;;17.20;99.90;;;;;;5108433;27;1424;-52
2022/10/08 09:25:40;;;;;;;;;;;17.50;99.90;;;;;;5067914;27;1418;-53
2022/10/08 09:28:38;;;;;;;;;;;17.70;99.90;;;;;;5108970;27;1321;-52
2022/10/08 09:31:22;;;;;;;;;;;17.60;99.90;;;;;;5109757;27;1293;-50
2022/10/08 09:34:04;;;;;;;;;;;17.50;99.90;;;;;;5109427;27;1332;-53
2022/10/08 09:36:44;;;;;;;;;;;17.20;99.90;;;;;;5102979;27;1417;-52
2022/10/08 09:39:24;;;;;;;;;;;16.90;99.90;;;;;;5129853;22;2109;-56
2022/10/08 09:42:11;;;;;;;;;;;16.70;99.90;;;;;;5088183;27;1214;-56
2022/10/08 09:44:51;;;;;;;;;;;16.50;99.90;;;;;;5108609;27;1450;-56
2022/10/08 09:47:30;;;;;;;;;;;16.80;99.90;;;;;;5104471;27;1535;-57
2022/10/08 09:50:17;;;;;;;;;;;17.40;99.90;;;;;;5105803;27;1318;-58
2022/10/08 09:52:56;;;;;;;;;;;17.80;99.90;;;;;;5098833;27;1430;-57
2022/10/08 09:55:35;;;;;;;;;;;17.80;99.90;;;;;;5106554;27;1402;-56
2022/10/08 09:58:17;;;;;;;;;;;17.80;99.90;;;;;;5104001;27;1623;-56
2022/10/08 10:01:03;;;;;;;;;;;18.10;99.90;;;;;;5106373;27;1738;-57
2022/10/08 10:03:47;;;;;;;;;;;18.40;99.90;;;;;;5108283;27;1306;-56
2022/10/08 10:06:31;;;;;;;;;;;18.80;99.90;;;;;;5106589;27;1433;-56
2022/10/08 10:09:22;;;;;;;;;;;18.90;99.90;;;;;;5107097;27;1299;-57
2022/10/08 10:12:03;;;;;;;;;;;18.50;99.90;;;;;;5107452;27;1256;-57
2022/10/08 10:14:43;;;;;;;;;;;18.10;99.90;;;;;;5105111;27;1669;-56
2022/10/08 10:17:27;;;;;;;;;;;18.40;99.90;;;;;;5101859;27;1309;-57
2022/10/08 10:20:11;;;;;;;;;;;19.00;99.90;;;;;;5105763;27;1418;-57
2022/10/08 10:22:51;;;;;;;;;;;19.30;99.90;;;;;;5103580;27;1768;-57
2022/10/08 10:25:34;;;;;;;;;;;19.40;99.90;;;;;;5085003;27;1309;-57
2022/10/08 10:28:16;;;;;;;;;;;19.40;99.90;;;;;;5105302;27;1418;-57
2022/10/08 10:30:58;;;;;;;;;;;19.40;99.90;;;;;;5085357;27;1205;-58
2022/10/08 10:33:39;;;;;;;;;;;19.30;99.90;;;;;;5077052;27;1212;-57
2022/10/08 10:36:18;;;;;;;;;;;19.20;99.90;;;;;;5104444;27;1612;-56
2022/10/08 10:39:06;;;;;;;;;;;19.20;99.90;;;;;;5080783;27;1864;-57
2022/10/08 10:41:46;;;;;;;;;;;18.80;99.90;;;;;;5103284;27;1646;-56
2022/10/08 10:44:27;;;;;;;;;;;18.60;99.90;;;;;;5103280;27;1665;-58
2022/10/08 10:47:07;;;;;;;;;;;18.80;99.90;;;;;;5106564;27;1571;-57
2022/10/08 10:49:47;;;;;;;;;;;19.00;99.90;;;;;;5090850;27;1467;-56
2022/10/08 10:52:41;;;;;;;;;;;19.10;99.90;;;;;;5104182;27;1259;-56
2022/10/08 10:55:21;;;;;;;;;;;19.20;99.90;;;;;;5108282;27;1664;-57
2022/10/08 10:58:09;;;;;;;;;;;19.30;99.90;;;;;;5101957;27;1622;-56
2022/10/08 11:00:53;;;;;;;;;;;19.50;99.90;;;;;;5117038;27;1559;-57
2022/10/08 11:03:37;;;;;;;;;;;19.70;99.90;;;;;;5102132;27;1539;-57
2022/10/08 11:06:27;;;;;;;;;;;19.70;99.90;;;;;;5091682;27;2097;-56
2022/10/08 11:09:08;;;;;;;;;;;19.80;99.90;;;;;;5104891;27;1865;-56
2022/10/08 11:11:51;;;;;;;;;;;20.00;99.90;;;;;;5101776;27;2018;-57
2022/10/08 11:14:36;;;;;;;;;;;19.90;99.90;;;;;;5105284;27;1778;-57
2022/10/08 11:17:21;;;;;;;;;;;19.70;99.90;;;;;;5104857;27;2048;-57
2022/10/08 11:20:02;;;;;;;;;;;19.30;99.90;;;;;;5107524;27;1521;-56
2022/10/08 11:22:45;;;;;;;;;;;19.10;99.90;;;;;;5104728;27;1390;-56
2022/10/08 11:25:28;;;;;;;;;;;19.20;99.90;;;;;;5086417;27;1400;-56
2022/10/08 11:28:19;;;;;;;;;;;19.60;99.90;;;;;;5105566;27;1747;-57
2022/10/08 11:31:04;;;;;;;;;;;20.10;99.90;;;;;;5104808;27;1201;-57
2022/10/08 11:33:44;;;;;;;;;;;20.40;99.90;;;;;;5108237;27;1456;-57
2022/10/08 11:36:28;;;;;;;;;;;20.50;99.90;;;;;;5108285;27;1300;-57
2022/10/08 11:39:13;;;;;;;;;;;20.30;99.90;;;;;;5097384;27;1372;-59
2022/10/08 11:41:56;;;;;;;;;;;20.20;99.90;;;;;;5108559;27;1876;-60
2022/10/08 11:44:36;;;;;;;;;;;20.00;99.90;;;;;;5108580;27;1743;-58
2022/10/08 11:47:32;;;;;;;;;;;19.60;99.90;;;;;;5108379;27;1478;-57
2022/10/08 11:50:21;;;;;;;;;;;19.30;99.90;;;;;;5109326;27;1262;-58
2022/10/08 11:53:13;;;;;;;;;;;19.20;99.90;;;;;;5108791;27;1592;-58
2022/10/08 11:55:53;;;;;;;;;;;19.00;99.90;;;;;;5104500;27;1476;-59
2022/10/08 11:58:34;;;;;;;;;;;19.00;99.90;;;;;;5084136;27;1297;-58
2022/10/08 12:01:12;;;;;;;;;;;18.90;99.90;;;;;;5108272;27;1206;-58
2022/10/08 12:04:03;;;;;;;;;;;18.80;99.90;;;;;;5108042;27;1468;-58
2022/10/08 12:06:45;;;;;;;;;;;18.70;99.90;;;;;;5109301;27;1177;-56
2022/10/08 12:09:24;;;;;;;;;;;18.70;99.90;;;;;;5077045;27;1288;-58
2022/10/08 12:12:12;;;;;;;;;;;18.90;99.90;;;;;;5109836;27;1309;-59
2022/10/08 12:14:50;;;;;;;;;;;19.20;99.90;;;;;;5110263;27;1182;-60
2022/10/08 12:17:48;;;;;;;;;;;19.10;99.90;;;;;;5099262;27;1311;-59
2022/10/08 12:20:29;;;;;;;;;;;19.10;99.90;;;;;;5109618;27;1344;-60
2022/10/08 12:23:08;;;;;;;;;;;18.90;99.90;;;;;;5067275;27;1204;-58
2022/10/08 12:26:07;;;;;;;;;;;18.80;99.90;;;;;;5109416;27;1293;-58
2022/10/08 12:28:49;;;;;;;;;;;18.90;99.90;;;;;;5108386;27;1394;-59
2022/10/08 12:31:34;;;;;;;;;;;19.10;99.90;;;;;;5109385;27;1708;-57
2022/10/08 12:34:14;;;;;;;;;;;19.20;99.90;;;;;;5109393;27;1289;-59
2022/10/08 12:36:58;;;;;;;;;;;19.40;99.90;;;;;;5089227;27;1445;-56
2022/10/08 12:39:40;;;;;;;;;;;19.20;99.90;;;;;;5106109;27;1494;-55
2022/10/08 12:42:20;;;;;;;;;;;19.20;99.90;;;;;;5068237;27;1313;-58
2022/10/08 12:45:04;;;;;;;;;;;19.40;99.90;;;;;;5109158;27;1355;-57
2022/10/08 12:47:46;;;;;;;;;;;19.50;99.90;;;;;;5103046;27;2031;-57
2022/10/08 12:50:38;;;;;;;;;;;19.30;99.90;;;;;;5108208;27;1874;-61
2022/10/08 12:53:17;;;;;;;;;;;18.80;99.90;;;;;;5108289;27;1626;-57
2022/10/08 12:55:57;;;;;;;;;;;18.20;99.90;;;;;;5109173;27;1914;-57
2022/10/08 12:58:37;;;;;;;;;;;17.80;99.90;;;;;;5102683;27;1267;-57
2022/10/08 13:01:18;;;;;;;;;;;17.40;99.90;;;;;;5109034;27;1351;-60
2022/10/08 13:04:17;;;;;;;;;;;17.30;99.90;;;;;;5089015;27;1801;-58
2022/10/08 13:06:57;;;;;;;;;;;17.20;99.90;;;;;;5109206;27;1893;-60
2022/10/08 13:09:35;;;;;;;;;;;17.20;99.90;;;;;;5088247;27;1399;-57
2022/10/08 13:12:15;;;;;;;;;;;17.30;99.90;;;;;;5109660;27;1369;-57
2022/10/08 13:14:59;;;;;;;;;;;17.30;99.90;;;;;;5109963;27;1276;-57
2022/10/08 13:17:39;;;;;;;;;;;17.20;99.90;;;;;;5108350;27;1691;-57
2022/10/08 13:20:20;;;;;;;;;;;17.10;99.90;;;;;;5108411;27;1585;-60
2022/10/08 13:23:01;;;;;;;;;;;17.10;99.90;;;;;;5105906;27;1848;-57
2022/10/08 13:25:40;;;;;;;;;;;17.10;99.90;;;;;;5103418;27;1752;-59
2022/10/08 13:28:23;;;;;;;;;;;17.20;99.70;;;;;;5104776;27;1607;-57
2022/10/08 13:31:01;;;;;;;;;;;17.10;99.90;;;;;;5110084;27;1531;-57
2022/10/08 13:33:40;;;;;;;;;;;16.80;99.90;;;;;;5110113;27;1285;-57
2022/10/08 13:36:20;;;;;;;;;;;16.60;99.90;;;;;;5090387;27;1613;-56
2022/10/08 13:38:59;;;;;;;;;;;16.50;99.90;;;;;;5104686;27;1637;-55
2022/10/08 13:41:38;;;;;;;;;;;16.60;99.90;;;;;;5106853;27;1463;-57
2022/10/08 13:44:16;;;;;;;;;;;16.80;99.90;;;;;;5090072;27;1309;-57
2022/10/08 13:46:54;;;;;;;;;;;17.00;99.90;;;;;;5109925;27;1264;-58
2022/10/08 13:49:33;;;;;;;;;;;17.00;99.90;;;;;;5110266;27;1386;-57
2022/10/08 13:52:13;;;;;;;;;;;17.10;99.90;;;;;;5110206;27;1509;-58
2022/10/08 13:54:53;;;;;;;;;;;17.20;99.90;;;;;;5110938;27;1620;-59
2022/10/08 13:57:32;;;;;;;;;;;17.00;99.90;;;;;;5090355;27;1318;-57
2022/10/08 14:00:14;;;;;;;;;;;16.80;99.90;;;;;;5110517;27;1193;-56
2022/10/08 14:02:53;;;;;;;;;;;16.70;99.90;;;;;;5110921;27;1315;-57
2022/10/08 14:05:32;;;;;;;;;;;16.60;99.90;;;;;;5089652;27;1406;-57
2022/10/08 14:08:12;;;;;;;;;;;16.50;99.90;;;;;;5087561;27;1398;-57
2022/10/08 14:10:56;;;;;;;;;;;16.50;99.90;;;;;;5110053;27;1258;-56
2022/10/08 14:13:35;;;;;;;;;;;16.40;99.90;;;;;;5069277;27;1297;-56
2022/10/08 14:16:14;;;;;;;;;;;16.40;99.90;;;;;;5109821;27;1320;-56
2022/10/08 14:18:52;;;;;;;;;;;16.30;99.90;;;;;;5109443;27;1263;-57
2022/10/08 14:21:30;;;;;;;;;;;16.10;99.90;;;;;;5069012;27;1235;-56
2022/10/08 14:24:09;;;;;;;;;;;16.00;99.90;;;;;;5109779;27;1348;-56
2022/10/08 14:26:48;;;;;;;;;;;15.80;99.90;;;;;;5110040;27;1436;-58
2022/10/08 14:29:27;;;;;;;;;;;15.80;99.90;;;;;;5108802;27;1293;-56
2022/10/08 14:32:07;;;;;;;;;;;15.70;99.90;;;;;;5109156;27;1402;-56
2022/10/08 14:34:46;;;;;;;;;;;15.60;99.90;;;;;;5088967;27;1332;-57
2022/10/08 14:37:24;;;;;;;;;;;15.60;99.90;;;;;;5080248;27;1480;-57
2022/10/08 14:40:03;;;;;;;;;;;15.50;99.90;;;;;;5108044;27;1420;-57
2022/10/08 14:42:42;;;;;;;;;;;15.70;99.90;;;;;;5088310;27;1224;-58
2022/10/08 14:45:21;;;;;;;;;;;16.00;99.90;;;;;;5088935;27;1228;-57
2022/10/08 14:48:00;;;;;;;;;;;16.40;99.90;;;;;;5113716;27;1316;-57
2022/10/08 14:50:39;;;;;;;;;;;16.80;99.90;;;;;;5109253;27;1681;-57
2022/10/08 14:53:17;;;;;;;;;;;17.00;99.90;;;;;;5108977;27;1571;-57
2022/10/08 14:55:56;;;;;;;;;;;17.10;99.90;;;;;;5088428;27;1178;-58
2022/10/08 14:58:35;;;;;;;;;;;16.90;99.90;;;;;;5108931;27;1386;-57
2022/10/08 15:01:13;;;;;;;;;;;16.70;99.90;;;;;;5068781;27;1424;-61
2022/10/08 15:03:51;;;;;;;;;;;16.50;99.90;;;;;;5109463;27;1474;-59
2022/10/08 15:06:30;;;;;;;;;;;16.30;99.90;;;;;;5109997;27;1343;-59
2022/10/08 15:09:09;;;;;;;;;;;16.20;99.90;;;;;;5109673;27;1313;-59
2022/10/08 15:11:48;;;;;;;;;;;16.10;99.90;;;;;;5109690;27;1706;-58
2022/10/08 15:14:26;;;;;;;;;;;16.10;99.90;;;;;;5109241;27;1944;-58
2022/10/08 15:17:04;;;;;;;;;;;16.10;99.90;;;;;;5108868;27;1496;-57
2022/10/08 15:19:42;;;;;;;;;;;16.10;99.90;;;;;;5108234;27;1328;-55
2022/10/08 15:22:20;;;;;;;;;;;15.90;99.90;;;;;;5109865;27;1211;-57
2022/10/08 15:24:59;;;;;;;;;;;15.60;99.90;;;;;;5109511;27;1643;-58
2022/10/08 15:27:37;;;;;;;;;;;15.10;99.90;;;;;;5068390;27;1230;-57
2022/10/08 15:30:15;;;;;;;;;;;14.70;99.90;;;;;;5109148;27;1304;-58
2022/10/08 15:32:54;;;;;;;;;;;14.40;99.90;;;;;;5108500;27;1261;-56
2022/10/08 15:35:35;;;;;;;;;;;14.20;99.90;;;;;;5109010;27;1680;-56
2022/10/08 15:38:15;;;;;;;;;;;13.90;99.90;;;;;;5110426;27;1357;-57
2022/10/08 15:41:00;;;;;;;;;;;13.70;99.90;;;;;;5088186;27;1334;-56
2022/10/08 15:43:39;;;;;;;;;;;13.50;99.90;;;;;;5089570;27;1314;-56
2022/10/08 15:46:18;;;;;;;;;;;13.30;99.90;;;;;;5109857;27;1576;-54
2022/10/08 15:48:57;;;;;;;;;;;13.20;99.90;;;;;;5088652;27;1365;-56